WetterOnline ( https://www.wetteronline.de )

Wetter aktuell Hoyerswerda

Aktuelles Wetter: Hoyerswerda (116m)

6-stündlich | Neueste Meldungen
Ortszeit Temperatur Wetter
Fr, 23.07. 20:00 23.3° C fast wolkenlos
Fr, 23.07. 14:00 24.6° C bewölkt
Fr, 23.07. 8:00 16.4° C bedeckt
Fr, 23.07. 2:00 12.2° C Nebel
Do, 22.07. 20:00 21.3° C bedeckt
Do, 22.07. 14:00 22.2° C bedeckt
Do, 22.07. 8:00 17.2° C bedeckt
Do, 22.07. 2:00 15.7° C bewölkt
Ortszeit Temperatur Wetter
Sa, 24.07. 1:30 16.1° C wolkig
Sa, 24.07. 1:20 16.1° C wolkig
Sa, 24.07. 1:10 16.4° C leicht bewölkt
Sa, 24.07. 1:00 16.2° C bewölkt
Sa, 24.07. 0:50 16.2° C bewölkt
Sa, 24.07. 0:40 15.9° C wolkig
Sa, 24.07. 0:30 16.2° C wolkig
Sa, 24.07. 0:00 15.8° C wolkig
Fr, 23.07. 23:30 16.2° C leicht bewölkt
Fr, 23.07. 23:00 16.5° C leicht bewölkt
Fr, 23.07. 22:30 17.2° C leicht bewölkt
Ortszeit Relative Feuchte Sichtweite
Fr, 23.07. 20:00 53% 45 km
Fr, 23.07. 14:00 45% 55 km
Fr, 23.07. 8:00 89% 24 km
Fr, 23.07. 2:00 95% 0.8 km
Do, 22.07. 20:00 66% 40 km
Do, 22.07. 14:00 56% 40 km
Do, 22.07. 8:00 80% 35 km
Do, 22.07. 2:00 88% 35 km
Ortszeit Relative Feuchte Sichtweite
Sa, 24.07. 1:30 91% 15 km
Sa, 24.07. 1:20 91% -
Sa, 24.07. 1:10 90% -
Sa, 24.07. 1:00 90% 11 km
Sa, 24.07. 0:50 90% -
Sa, 24.07. 0:40 89% -
Sa, 24.07. 0:30 88% 10 km
Sa, 24.07. 0:00 90% 16 km
Fr, 23.07. 23:30 88% 22 km
Fr, 23.07. 23:00 84% 24 km
Fr, 23.07. 22:30 84% 27 km
Ortszeit Niederschlagsmenge Niederschlagsart
Fr, 23.07. 20:00 0.0 l/m2 in 12 Std. -
Fr, 23.07. 14:00 0.0 l/m2 in 6 Std. -
Fr, 23.07. 8:00 0.0 l/m2 in 12 Std. -
Fr, 23.07. 2:00 0.0 l/m2 in 6 Std. -
Do, 22.07. 20:00 0.1 l/m2 in 12 Std. Sprühregen
Do, 22.07. 14:00 0.0 l/m2 in 6 Std. -
Do, 22.07. 8:00 0.0 l/m2 in 12 Std. -
Do, 22.07. 2:00 0.0 l/m2 in 6 Std. -
Ortszeit Niederschlagsmenge Niederschlagsart
Sa, 24.07. 1:30 0.0 l/m2 in 1 Std. -
Sa, 24.07. 1:20 keine Meldung -
Sa, 24.07. 1:10 keine Meldung -
Sa, 24.07. 1:00 0.0 l/m2 in 1 Std. -
Sa, 24.07. 0:50 keine Meldung -
Sa, 24.07. 0:40 keine Meldung -
Sa, 24.07. 0:30 0.0 l/m2 in 1 Std. -
Sa, 24.07. 0:00 0.0 l/m2 in 1 Std. -
Fr, 23.07. 23:30 0.0 l/m2 in 1 Std. -
Fr, 23.07. 23:00 0.0 l/m2 in 1 Std. -
Fr, 23.07. 22:30 0.0 l/m2 in 1 Std. -
Ortszeit Stärke Spitze Richtung
km/h Bft. km/h Grad Sektor
Fr, 23.07. 20:00 0 0 18 - -
Fr, 23.07. 14:00 6 1 15 110° O
Fr, 23.07. 8:00 4 1 11 340° N
Fr, 23.07. 2:00 4 1 11 180° S
Do, 22.07. 20:00 4 1 18 240° SW
Do, 22.07. 14:00 7 2 14 250° W
Do, 22.07. 8:00 4 1 7 230° SW
Do, 22.07. 2:00 4 1 11 190° S
Ortszeit Stärke Spitze Richtung
km/h Bft. km/h Grad Sektor
Sa, 24.07. 1:30 2 1 7 100° O
Sa, 24.07. 1:20 2 1 - 100° O
Sa, 24.07. 1:10 4 1 - 110° O
Sa, 24.07. 1:00 2 1 4 250° W
Sa, 24.07. 0:50 2 1 - 250° W
Sa, 24.07. 0:40 2 1 - 330° NW
Sa, 24.07. 0:30 2 1 4 110° O
Sa, 24.07. 0:00 4 1 7 70° O
Fr, 23.07. 23:30 4 1 4 70° O
Fr, 23.07. 23:00 4 1 4 100° O
Fr, 23.07. 22:30 2 1 4 90° O
Ortszeit Untergrenze Bedeckung Gattung
total tief tief mittel hoch
Fr, 23.07. 20:00 2100 m 0/8 0/8 - - -
Fr, 23.07. 14:00 2100 m 7/8 7/8 - - -
Fr, 23.07. 8:00 2100 m 8/8 8/8 - - -
Fr, 23.07. 2:00 - 0/8 0/8 - - -
Do, 22.07. 20:00 2100 m 8/8 8/8 - - -
Do, 22.07. 14:00 2100 m 8/8 8/8 - - -
Do, 22.07. 8:00 1800 m 8/8 8/8 - - -
Do, 22.07. 2:00 1800 m 7/8 7/8 - - -
Ortszeit Bedeckungsgrad in Achtel und Wolkenuntergrenze
Sa, 24.07. 1:30 5(1800m) 5(2100m) 6(2700m)
Sa, 24.07. 1:20 5(1800m) 5(2100m) 6(2700m)
Sa, 24.07. 1:10 4(1800m) 4(2700m)
Sa, 24.07. 1:00 6(1800m) 7(2700m)
Sa, 24.07. 0:50 6(1800m) 7(2700m)
Sa, 24.07. 0:40 6(2100m) 6(2400m)
Sa, 24.07. 0:30 4(1800m) 6(2400m)
Sa, 24.07. 0:00 5(1800m) 6(2400m)
Fr, 23.07. 23:30 4(1800m)
Fr, 23.07. 23:00 2(2100m)
Fr, 23.07. 22:30 3(2100m)
Ortszeit Luftdruck NN (hPa) Tendenz (hPa in 3 Std.)
Fr, 23.07. 20:00 1014 - 0,8
Fr, 23.07. 14:00 1016 - 1,0
Fr, 23.07. 8:00 1018 - 0,5
Fr, 23.07. 2:00 1019 - 0,3
Do, 22.07. 20:00 1019 - 1,2
Do, 22.07. 14:00 1021 - 0,8
Do, 22.07. 8:00 1022 0,0
Do, 22.07. 2:00 1023 - 0,2
Ortszeit Luftdruck NN (hPa) Tendenz (hPa in 3 Std.)
Sa, 24.07. 1:30 1015 - 0,1
Sa, 24.07. 1:20 1015 keine Meldung
Sa, 24.07. 1:10 1015 keine Meldung
Sa, 24.07. 1:00 1015 0,0
Sa, 24.07. 0:50 1015 keine Meldung
Sa, 24.07. 0:40 1015 keine Meldung
Sa, 24.07. 0:30 1015 + 0,1
Sa, 24.07. 0:00 1015 + 0,2
Fr, 23.07. 23:30 1015 + 0,2
Fr, 23.07. 23:00 1015 + 0,2
Fr, 23.07. 22:30 1015 + 0,1
Ortszeit Schneehöhe (cm)
Fr, 23.07. 20:00 -
Fr, 23.07. 14:00 -
Fr, 23.07. 8:00 -
Fr, 23.07. 2:00 -
Do, 22.07. 20:00 -
Do, 22.07. 14:00 -
Do, 22.07. 8:00 -
Do, 22.07. 2:00 -
Ortszeit Schneehöhe (cm)
Sa, 24.07. 1:30 -
Sa, 24.07. 1:20 -
Sa, 24.07. 1:10 -
Sa, 24.07. 1:00 -
Sa, 24.07. 0:50 -
Sa, 24.07. 0:40 -
Sa, 24.07. 0:30 -
Sa, 24.07. 0:00 -
Fr, 23.07. 23:30 -
Fr, 23.07. 23:00 -
Fr, 23.07. 22:30 -
Link zu dieser Seite / Seite empfehlen

Das Wetter in ...